Terminal Aerodrome Forecast
Issued by NWS

Home | Current Version | Previous Version | Text Only | Print | Product List | Glossary On
Versions: 1 2 3 4 5 6 7 8 9 10 11 12
000
FTUS45 KTWC 110520
TAFOLS
TAF
KOLS 110520Z 1106/1206 08006KT P6SM SCT120 OVC200
     FM111700 13005KT P6SM SCT100 OVC200
     FM112100 34005KT P6SM SCT100 OVC200
     FM120200 05004KT P6SM BKN200=

USA.gov is the U.S. government's official web portal to all federal, state and local government web resources and services.